Pagrindinis puslapis
METAR-TAF:

METAR-TAF

Oro uostai :

Kerteh, Malaizija

platuma: 04-32-15N, ilguma: 103-25-36E, Aukštis: 5 m

Dabartinis oras

Ataskaita buvo paskelbta 37 minutes, ne 19:00 UTC
Vėjas 3 kt nuo kintamojo kryptimis
Temperatūra 24°C
Drėgmė 94%
Slėgis 1008 hPa

METAR: WMKE 251900Z AUTO VRB03KT //// // ////// 24/23 Q1008

Laikas: 03:37 (19:37 UTC)

Prognozė

Ataskaita buvo paskelbta 2 valandos ir 37 minutes, ne 17:00 UTC
Prognozė galioja nuo 25 metu 18 UTC su 26 metu 18 UTC
Vėjas 3 kt nuo kintamojo kryptimis
Matomumas 10 km arba daugiau
Mažai debesys ne aukštis 1400 ft
Tapsmas
nuo 26 metu 05 UTC su 26 metu 06 UTC
Matomumas: 4000 m
Išsisklaidę debesys ne aukštis 100 ft
Išsisklaidę debesys ne aukštis 1400 ft
lietus

TAF: WMKE 251700Z 2518/2618 VRB03KT 9999 FEW014 BECMG 2605/2606 4000 RA SCT001 SCT014

Orai ataskaitas ir orų prognozės (METAR, TAF).

turimą stotys yra geltonos ir raudonos taškus žemėlapyje.

Perkelti pele per norėdami pamatyti stoties vardą.

Tada spustelėkite, norėdami matyti oro stebėjimo ir prognozės.

Norėdami pakeisti žemėlapį: spustelėkite ant žalios mygtukų su juodo kryžiaus žemyn,; žalią mygtuką su brūkšneliu, jei norite nutolinti; arba žalių rodyklių gretimoms žemėlapius.


METAR-TAF: